sensor_id;sensor_type;location;lat;lon;timestamp;temperature;humidity
9482;DHT22;4779;48.062;11.672;2023-06-10T00:00:49;17.30;98.50
9482;DHT22;4779;48.062;11.672;2023-06-10T00:03:16;17.30;98.60
9482;DHT22;4779;48.062;11.672;2023-06-10T00:05:43;17.20;98.60
9482;DHT22;4779;48.062;11.672;2023-06-10T00:08:11;17.20;98.80
9482;DHT22;4779;48.062;11.672;2023-06-10T00:10:41;17.20;98.90
9482;DHT22;4779;48.062;11.672;2023-06-10T00:13:08;17.30;99.10
9482;DHT22;4779;48.062;11.672;2023-06-10T00:15:37;17.20;98.90
9482;DHT22;4779;48.062;11.672;2023-06-10T00:18:04;17.10;99.10
9482;DHT22;4779;48.062;11.672;2023-06-10T00:20:31;17.00;99.10
9482;DHT22;4779;48.062;11.672;2023-06-10T00:22:58;17.00;99.60
9482;DHT22;4779;48.062;11.672;2023-06-10T00:25:28;17.00;99.50
9482;DHT22;4779;48.062;11.672;2023-06-10T00:27:55;17.00;99.70
9482;DHT22;4779;48.062;11.672;2023-06-10T00:30:22;17.00;99.80
9482;DHT22;4779;48.062;11.672;2023-06-10T00:32:49;17.00;99.70
9482;DHT22;4779;48.062;11.672;2023-06-10T00:35:16;17.00;99.70
9482;DHT22;4779;48.062;11.672;2023-06-10T00:37:43;16.90;99.90
9482;DHT22;4779;48.062;11.672;2023-06-10T00:40:10;16.90;99.90
9482;DHT22;4779;48.062;11.672;2023-06-10T00:42:39;16.80;99.90
9482;DHT22;4779;48.062;11.672;2023-06-10T00:45:06;16.80;99.90
9482;DHT22;4779;48.062;11.672;2023-06-10T00:47:34;16.70;99.90
9482;DHT22;4779;48.062;11.672;2023-06-10T00:50:01;16.70;99.90
9482;DHT22;4779;48.062;11.672;2023-06-10T00:52:29;16.70;99.90
9482;DHT22;4779;48.062;11.672;2023-06-10T00:54:56;16.70;99.90
9482;DHT22;4779;48.062;11.672;2023-06-10T00:57:24;16.70;99.90
9482;DHT22;4779;48.062;11.672;2023-06-10T00:59:54;16.70;99.90
9482;DHT22;4779;48.062;11.672;2023-06-10T01:02:21;16.60;99.90
9482;DHT22;4779;48.062;11.672;2023-06-10T01:04:48;16.60;99.90
9482;DHT22;4779;48.062;11.672;2023-06-10T01:07:24;16.50;99.90
9482;DHT22;4779;48.062;11.672;2023-06-10T01:09:55;16.50;99.90
9482;DHT22;4779;48.062;11.672;2023-06-10T01:12:31;16.40;99.90
9482;DHT22;4779;48.062;11.672;2023-06-10T01:15:01;16.40;99.90
9482;DHT22;4779;48.062;11.672;2023-06-10T01:17:29;16.40;99.90
9482;DHT22;4779;48.062;11.672;2023-06-10T01:19:57;16.40;99.90
9482;DHT22;4779;48.062;11.672;2023-06-10T01:22:26;16.50;99.90
9482;DHT22;4779;48.062;11.672;2023-06-10T01:24:54;16.50;99.90
9482;DHT22;4779;48.062;11.672;2023-06-10T01:27:27;16.60;99.90
9482;DHT22;4779;48.062;11.672;2023-06-10T01:29:59;16.50;99.90
9482;DHT22;4779;48.062;11.672;2023-06-10T01:32:32;16.30;99.90
9482;DHT22;4779;48.062;11.672;2023-06-10T01:35:01;16.20;99.90
9482;DHT22;4779;48.062;11.672;2023-06-10T01:37:31;16.20;99.90
9482;DHT22;4779;48.062;11.672;2023-06-10T01:39:59;16.20;99.90
9482;DHT22;4779;48.062;11.672;2023-06-10T01:42:27;16.20;99.90
9482;DHT22;4779;48.062;11.672;2023-06-10T01:44:54;16.30;99.90
9482;DHT22;4779;48.062;11.672;2023-06-10T01:47:21;16.20;99.90
9482;DHT22;4779;48.062;11.672;2023-06-10T01:49:48;16.20;99.90
9482;DHT22;4779;48.062;11.672;2023-06-10T01:52:15;16.10;99.90
9482;DHT22;4779;48.062;11.672;2023-06-10T01:54:44;16.10;99.90
9482;DHT22;4779;48.062;11.672;2023-06-10T01:57:11;16.10;99.90
9482;DHT22;4779;48.062;11.672;2023-06-10T01:59:38;16.10;99.90
9482;DHT22;4779;48.062;11.672;2023-06-10T02:02:05;16.10;99.90
9482;DHT22;4779;48.062;11.672;2023-06-10T02:04:32;16.00;99.90
9482;DHT22;4779;48.062;11.672;2023-06-10T02:06:59;15.90;99.90
9482;DHT22;4779;48.062;11.672;2023-06-10T02:09:29;15.90;99.90
9482;DHT22;4779;48.062;11.672;2023-06-10T02:11:58;15.90;99.90
9482;DHT22;4779;48.062;11.672;2023-06-10T02:14:24;15.80;99.90
9482;DHT22;4779;48.062;11.672;2023-06-10T02:16:51;15.80;99.90
9482;DHT22;4779;48.062;11.672;2023-06-10T02:19:22;15.90;99.90
9482;DHT22;4779;48.062;11.672;2023-06-10T02:21:49;15.80;99.90
9482;DHT22;4779;48.062;11.672;2023-06-10T02:24:16;15.90;99.90
9482;DHT22;4779;48.062;11.672;2023-06-10T02:26:43;15.80;99.90
9482;DHT22;4779;48.062;11.672;2023-06-10T02:29:12;15.70;99.90
9482;DHT22;4779;48.062;11.672;2023-06-10T02:31:38;15.70;99.90
9482;DHT22;4779;48.062;11.672;2023-06-10T02:34:06;15.70;99.90
9482;DHT22;4779;48.062;11.672;2023-06-10T02:36:34;15.70;99.90
9482;DHT22;4779;48.062;11.672;2023-06-10T02:39:01;15.60;99.90
9482;DHT22;4779;48.062;11.672;2023-06-10T02:41:29;15.60;99.90
9482;DHT22;4779;48.062;11.672;2023-06-10T02:43:56;15.60;99.90
9482;DHT22;4779;48.062;11.672;2023-06-10T02:46:24;15.60;99.90
9482;DHT22;4779;48.062;11.672;2023-06-10T02:48:51;15.60;99.90
9482;DHT22;4779;48.062;11.672;2023-06-10T02:51:18;15.50;99.90
9482;DHT22;4779;48.062;11.672;2023-06-10T02:53:46;15.50;99.90
9482;DHT22;4779;48.062;11.672;2023-06-10T02:56:15;15.50;99.90
9482;DHT22;4779;48.062;11.672;2023-06-10T02:58:42;15.40;99.90
9482;DHT22;4779;48.062;11.672;2023-06-10T03:01:09;15.40;99.90
9482;DHT22;4779;48.062;11.672;2023-06-10T03:03:38;15.50;99.90
9482;DHT22;4779;48.062;11.672;2023-06-10T03:06:08;15.50;99.90
9482;DHT22;4779;48.062;11.672;2023-06-10T03:08:35;15.50;99.90
9482;DHT22;4779;48.062;11.672;2023-06-10T03:11:03;15.50;99.90
9482;DHT22;4779;48.062;11.672;2023-06-10T03:13:30;15.40;99.90
9482;DHT22;4779;48.062;11.672;2023-06-10T03:15:57;15.40;99.90
9482;DHT22;4779;48.062;11.672;2023-06-10T03:18:26;15.40;99.90
9482;DHT22;4779;48.062;11.672;2023-06-10T03:20:55;15.40;99.90
9482;DHT22;4779;48.062;11.672;2023-06-10T03:23:23;15.40;99.90
9482;DHT22;4779;48.062;11.672;2023-06-10T03:25:50;15.40;99.90
9482;DHT22;4779;48.062;11.672;2023-06-10T03:28:16;15.30;99.90
9482;DHT22;4779;48.062;11.672;2023-06-10T03:30:43;15.30;99.90
9482;DHT22;4779;48.062;11.672;2023-06-10T03:33:10;15.20;99.90
9482;DHT22;4779;48.062;11.672;2023-06-10T03:35:37;15.30;99.90
9482;DHT22;4779;48.062;11.672;2023-06-10T03:38:05;15.30;99.90
9482;DHT22;4779;48.062;11.672;2023-06-10T03:40:32;15.30;99.90
9482;DHT22;4779;48.062;11.672;2023-06-10T03:43:00;15.60;99.90
9482;DHT22;4779;48.062;11.672;2023-06-10T03:45:27;15.30;99.90
9482;DHT22;4779;48.062;11.672;2023-06-10T03:47:54;15.40;99.90
9482;DHT22;4779;48.062;11.672;2023-06-10T03:50:22;15.30;99.90
9482;DHT22;4779;48.062;11.672;2023-06-10T03:52:50;15.40;99.90
9482;DHT22;4779;48.062;11.672;2023-06-10T03:55:18;15.20;99.90
9482;DHT22;4779;48.062;11.672;2023-06-10T03:57:47;15.30;99.90
9482;DHT22;4779;48.062;11.672;2023-06-10T04:00:15;15.20;99.90
9482;DHT22;4779;48.062;11.672;2023-06-10T04:02:43;15.00;99.90
9482;DHT22;4779;48.062;11.672;2023-06-10T04:05:14;15.10;99.90
9482;DHT22;4779;48.062;11.672;2023-06-10T04:07:41;15.00;99.90
9482;DHT22;4779;48.062;11.672;2023-06-10T04:10:09;15.20;99.90
9482;DHT22;4779;48.062;11.672;2023-06-10T04:12:38;15.30;99.90
9482;DHT22;4779;48.062;11.672;2023-06-10T04:15:06;15.30;99.90
9482;DHT22;4779;48.062;11.672;2023-06-10T04:17:33;15.30;99.90
9482;DHT22;4779;48.062;11.672;2023-06-10T04:20:00;15.40;99.90
9482;DHT22;4779;48.062;11.672;2023-06-10T04:22:28;15.50;99.90
9482;DHT22;4779;48.062;11.672;2023-06-10T04:24:56;15.50;99.90
9482;DHT22;4779;48.062;11.672;2023-06-10T04:27:23;15.60;99.90
9482;DHT22;4779;48.062;11.672;2023-06-10T04:29:52;15.60;99.90
9482;DHT22;4779;48.062;11.672;2023-06-10T04:32:19;15.70;99.90
9482;DHT22;4779;48.062;11.672;2023-06-10T04:34:46;15.70;99.90
9482;DHT22;4779;48.062;11.672;2023-06-10T04:37:12;15.70;99.90
9482;DHT22;4779;48.062;11.672;2023-06-10T04:39:40;15.80;99.90
9482;DHT22;4779;48.062;11.672;2023-06-10T04:42:07;15.90;99.90
9482;DHT22;4779;48.062;11.672;2023-06-10T04:44:34;16.00;99.90
9482;DHT22;4779;48.062;11.672;2023-06-10T04:47:02;16.10;99.90
9482;DHT22;4779;48.062;11.672;2023-06-10T04:49:29;16.30;99.90
9482;DHT22;4779;48.062;11.672;2023-06-10T04:51:57;16.30;99.90
9482;DHT22;4779;48.062;11.672;2023-06-10T04:54:25;16.30;99.90
9482;DHT22;4779;48.062;11.672;2023-06-10T04:56:52;16.30;99.90
9482;DHT22;4779;48.062;11.672;2023-06-10T04:59:20;16.40;99.90
9482;DHT22;4779;48.062;11.672;2023-06-10T05:01:46;16.40;99.90
9482;DHT22;4779;48.062;11.672;2023-06-10T05:04:15;16.60;99.90
9482;DHT22;4779;48.062;11.672;2023-06-10T05:06:41;16.60;99.90
9482;DHT22;4779;48.062;11.672;2023-06-10T05:09:09;16.70;99.90
9482;DHT22;4779;48.062;11.672;2023-06-10T05:11:36;16.80;99.90
9482;DHT22;4779;48.062;11.672;2023-06-10T05:14:03;17.00;99.90
9482;DHT22;4779;48.062;11.672;2023-06-10T05:16:30;17.10;99.90
9482;DHT22;4779;48.062;11.672;2023-06-10T05:18:57;17.30;99.90
9482;DHT22;4779;48.062;11.672;2023-06-10T05:21:26;17.30;99.90
9482;DHT22;4779;48.062;11.672;2023-06-10T05:23:52;17.40;99.90
9482;DHT22;4779;48.062;11.672;2023-06-10T05:26:20;17.60;99.90
9482;DHT22;4779;48.062;11.672;2023-06-10T05:28:47;17.70;99.90
9482;DHT22;4779;48.062;11.672;2023-06-10T05:31:14;17.70;99.90
9482;DHT22;4779;48.062;11.672;2023-06-10T05:33:41;17.70;99.90
9482;DHT22;4779;48.062;11.672;2023-06-10T05:36:07;17.80;99.90
9482;DHT22;4779;48.062;11.672;2023-06-10T05:38:36;17.90;99.90
9482;DHT22;4779;48.062;11.672;2023-06-10T05:41:03;18.00;99.90
9482;DHT22;4779;48.062;11.672;2023-06-10T05:43:30;18.00;99.90
9482;DHT22;4779;48.062;11.672;2023-06-10T05:45:56;18.20;99.90
9482;DHT22;4779;48.062;11.672;2023-06-10T05:48:23;18.30;99.90
9482;DHT22;4779;48.062;11.672;2023-06-10T05:50:50;18.30;99.90
9482;DHT22;4779;48.062;11.672;2023-06-10T05:53:17;18.40;99.90
9482;DHT22;4779;48.062;11.672;2023-06-10T05:55:46;18.40;99.90
9482;DHT22;4779;48.062;11.672;2023-06-10T05:58:13;18.50;99.90
9482;DHT22;4779;48.062;11.672;2023-06-10T06:00:41;18.60;99.90
9482;DHT22;4779;48.062;11.672;2023-06-10T06:03:08;18.70;99.90
9482;DHT22;4779;48.062;11.672;2023-06-10T06:05:36;18.70;99.90
9482;DHT22;4779;48.062;11.672;2023-06-10T06:08:04;18.90;99.90
9482;DHT22;4779;48.062;11.672;2023-06-10T06:10:31;19.00;99.90
9482;DHT22;4779;48.062;11.672;2023-06-10T06:13:00;19.10;99.90
9482;DHT22;4779;48.062;11.672;2023-06-10T06:15:27;19.30;99.90
9482;DHT22;4779;48.062;11.672;2023-06-10T06:17:54;19.40;99.90
9482;DHT22;4779;48.062;11.672;2023-06-10T06:20:22;19.50;99.90
9482;DHT22;4779;48.062;11.672;2023-06-10T06:22:49;19.60;99.90
9482;DHT22;4779;48.062;11.672;2023-06-10T06:25:16;19.70;99.90
9482;DHT22;4779;48.062;11.672;2023-06-10T06:27:43;19.80;99.90
9482;DHT22;4779;48.062;11.672;2023-06-10T06:30:11;20.00;99.90
9482;DHT22;4779;48.062;11.672;2023-06-10T06:32:38;20.10;99.90
9482;DHT22;4779;48.062;11.672;2023-06-10T06:35:06;20.30;99.90
9482;DHT22;4779;48.062;11.672;2023-06-10T06:37:33;20.30;99.90
9482;DHT22;4779;48.062;11.672;2023-06-10T06:40:00;20.50;99.90
9482;DHT22;4779;48.062;11.672;2023-06-10T06:42:28;20.70;99.90
9482;DHT22;4779;48.062;11.672;2023-06-10T06:44:54;20.90;99.90
9482;DHT22;4779;48.062;11.672;2023-06-10T06:47:23;21.00;99.90
9482;DHT22;4779;48.062;11.672;2023-06-10T06:49:50;21.10;99.90
9482;DHT22;4779;48.062;11.672;2023-06-10T06:52:17;21.10;99.90
9482;DHT22;4779;48.062;11.672;2023-06-10T06:54:45;21.20;99.90
9482;DHT22;4779;48.062;11.672;2023-06-10T06:57:12;21.30;99.90
9482;DHT22;4779;48.062;11.672;2023-06-10T06:59:39;21.50;99.90
9482;DHT22;4779;48.062;11.672;2023-06-10T07:02:06;21.60;99.90
9482;DHT22;4779;48.062;11.672;2023-06-10T07:04:34;21.60;99.90
9482;DHT22;4779;48.062;11.672;2023-06-10T07:07:01;21.70;99.90
9482;DHT22;4779;48.062;11.672;2023-06-10T07:09:28;21.80;99.90
9482;DHT22;4779;48.062;11.672;2023-06-10T07:11:55;21.90;99.90
9482;DHT22;4779;48.062;11.672;2023-06-10T07:14:22;22.00;99.90
9482;DHT22;4779;48.062;11.672;2023-06-10T07:16:49;21.90;99.90
9482;DHT22;4779;48.062;11.672;2023-06-10T07:19:16;22.00;99.90
9482;DHT22;4779;48.062;11.672;2023-06-10T07:21:45;22.10;99.90
9482;DHT22;4779;48.062;11.672;2023-06-10T07:24:12;22.30;99.80
9482;DHT22;4779;48.062;11.672;2023-06-10T07:26:38;22.40;99.90
9482;DHT22;4779;48.062;11.672;2023-06-10T07:29:05;22.50;99.80
9482;DHT22;4779;48.062;11.672;2023-06-10T07:31:32;22.70;99.80
9482;DHT22;4779;48.062;11.672;2023-06-10T07:33:59;22.80;99.00
9482;DHT22;4779;48.062;11.672;2023-06-10T07:36:27;22.70;98.00
9482;DHT22;4779;48.062;11.672;2023-06-10T07:38:56;22.80;98.40
9482;DHT22;4779;48.062;11.672;2023-06-10T07:41:23;22.90;97.90
9482;DHT22;4779;48.062;11.672;2023-06-10T07:43:50;23.00;97.70
9482;DHT22;4779;48.062;11.672;2023-06-10T07:46:20;22.90;96.70
9482;DHT22;4779;48.062;11.672;2023-06-10T07:48:47;23.00;97.80
9482;DHT22;4779;48.062;11.672;2023-06-10T07:51:15;23.10;97.20
9482;DHT22;4779;48.062;11.672;2023-06-10T07:53:42;23.10;96.80
9482;DHT22;4779;48.062;11.672;2023-06-10T07:56:11;23.10;97.40
9482;DHT22;4779;48.062;11.672;2023-06-10T07:58:38;23.20;97.90
9482;DHT22;4779;48.062;11.672;2023-06-10T08:01:05;23.30;97.00
9482;DHT22;4779;48.062;11.672;2023-06-10T08:03:33;23.40;97.10
9482;DHT22;4779;48.062;11.672;2023-06-10T08:06:00;23.50;96.60
9482;DHT22;4779;48.062;11.672;2023-06-10T08:08:26;23.50;95.80
9482;DHT22;4779;48.062;11.672;2023-06-10T08:10:53;23.60;96.50
9482;DHT22;4779;48.062;11.672;2023-06-10T08:13:22;23.60;95.80
9482;DHT22;4779;48.062;11.672;2023-06-10T08:15:49;23.70;95.70
9482;DHT22;4779;48.062;11.672;2023-06-10T08:18:16;23.80;95.70
9482;DHT22;4779;48.062;11.672;2023-06-10T08:20:43;23.90;96.60
9482;DHT22;4779;48.062;11.672;2023-06-10T08:23:10;24.00;95.10
9482;DHT22;4779;48.062;11.672;2023-06-10T08:25:37;24.00;94.60
9482;DHT22;4779;48.062;11.672;2023-06-10T08:28:04;24.00;95.00
9482;DHT22;4779;48.062;11.672;2023-06-10T08:30:32;23.80;95.60
9482;DHT22;4779;48.062;11.672;2023-06-10T08:33:00;23.50;94.80
9482;DHT22;4779;48.062;11.672;2023-06-10T08:35:27;23.40;95.60
9482;DHT22;4779;48.062;11.672;2023-06-10T08:37:53;23.50;95.30
9482;DHT22;4779;48.062;11.672;2023-06-10T08:40:20;23.60;95.20
9482;DHT22;4779;48.062;11.672;2023-06-10T08:42:51;23.90;94.80
9482;DHT22;4779;48.062;11.672;2023-06-10T08:45:22;23.80;94.70
9482;DHT22;4779;48.062;11.672;2023-06-10T08:47:51;24.10;95.20
9482;DHT22;4779;48.062;11.672;2023-06-10T08:50:19;24.10;94.40
9482;DHT22;4779;48.062;11.672;2023-06-10T08:52:48;23.90;94.20
9482;DHT22;4779;48.062;11.672;2023-06-10T08:55:19;23.50;94.50
9482;DHT22;4779;48.062;11.672;2023-06-10T08:57:51;23.60;94.10
9482;DHT22;4779;48.062;11.672;2023-06-10T09:00:19;24.10;94.80
9482;DHT22;4779;48.062;11.672;2023-06-10T09:02:46;24.60;93.10
9482;DHT22;4779;48.062;11.672;2023-06-10T09:05:15;25.00;92.70
9482;DHT22;4779;48.062;11.672;2023-06-10T09:07:43;25.50;92.90
9482;DHT22;4779;48.062;11.672;2023-06-10T09:10:11;25.80;93.00
9482;DHT22;4779;48.062;11.672;2023-06-10T09:12:38;26.10;92.70
9482;DHT22;4779;48.062;11.672;2023-06-10T09:15:06;26.10;90.90
9482;DHT22;4779;48.062;11.672;2023-06-10T09:17:33;25.70;91.70
9482;DHT22;4779;48.062;11.672;2023-06-10T09:20:02;25.60;92.50
9482;DHT22;4779;48.062;11.672;2023-06-10T09:22:30;25.40;92.40
9482;DHT22;4779;48.062;11.672;2023-06-10T09:25:06;25.10;91.80
9482;DHT22;4779;48.062;11.672;2023-06-10T09:27:44;24.70;92.90
9482;DHT22;4779;48.062;11.672;2023-06-10T09:30:24;24.40;93.10
9482;DHT22;4779;48.062;11.672;2023-06-10T09:32:53;24.60;92.80
9482;DHT22;4779;48.062;11.672;2023-06-10T09:35:22;24.90;92.80
9482;DHT22;4779;48.062;11.672;2023-06-10T09:37:51;25.30;92.40
9482;DHT22;4779;48.062;11.672;2023-06-10T09:40:19;25.50;92.70
9482;DHT22;4779;48.062;11.672;2023-06-10T09:42:46;25.20;91.80
9482;DHT22;4779;48.062;11.672;2023-06-10T09:45:19;24.90;92.50
9482;DHT22;4779;48.062;11.672;2023-06-10T09:47:46;24.60;92.90
9482;DHT22;4779;48.062;11.672;2023-06-10T09:50:13;24.60;92.80
9482;DHT22;4779;48.062;11.672;2023-06-10T09:52:40;24.90;94.20
9482;DHT22;4779;48.062;11.672;2023-06-10T09:55:09;25.40;92.90
9482;DHT22;4779;48.062;11.672;2023-06-10T09:57:37;25.20;92.30
9482;DHT22;4779;48.062;11.672;2023-06-10T10:00:05;25.00;93.00
9482;DHT22;4779;48.062;11.672;2023-06-10T10:02:44;25.00;93.10
9482;DHT22;4779;48.062;11.672;2023-06-10T10:05:12;25.50;93.40
9482;DHT22;4779;48.062;11.672;2023-06-10T10:07:39;26.10;91.80
9482;DHT22;4779;48.062;11.672;2023-06-10T10:10:08;26.60;91.50
9482;DHT22;4779;48.062;11.672;2023-06-10T10:12:36;27.10;91.40
9482;DHT22;4779;48.062;11.672;2023-06-10T10:15:06;27.60;92.00
9482;DHT22;4779;48.062;11.672;2023-06-10T10:17:34;27.80;91.40
9482;DHT22;4779;48.062;11.672;2023-06-10T10:20:05;27.80;90.40
9482;DHT22;4779;48.062;11.672;2023-06-10T10:22:38;28.00;88.80
9482;DHT22;4779;48.062;11.672;2023-06-10T10:25:11;28.30;88.20
9482;DHT22;4779;48.062;11.672;2023-06-10T10:27:44;28.50;89.80
9482;DHT22;4779;48.062;11.672;2023-06-10T10:30:12;28.80;90.20
9482;DHT22;4779;48.062;11.672;2023-06-10T10:32:43;28.90;88.70
9482;DHT22;4779;48.062;11.672;2023-06-10T10:35:17;29.00;84.60
9482;DHT22;4779;48.062;11.672;2023-06-10T10:37:44;29.10;85.30
9482;DHT22;4779;48.062;11.672;2023-06-10T10:40:13;28.60;85.30
9482;DHT22;4779;48.062;11.672;2023-06-10T10:42:41;28.10;85.70
9482;DHT22;4779;48.062;11.672;2023-06-10T10:45:09;27.50;86.80
9482;DHT22;4779;48.062;11.672;2023-06-10T10:47:37;26.80;87.00
9482;DHT22;4779;48.062;11.672;2023-06-10T10:50:14;26.30;88.30
9482;DHT22;4779;48.062;11.672;2023-06-10T10:52:52;26.20;90.60
9482;DHT22;4779;48.062;11.672;2023-06-10T10:55:21;26.10;89.70
9482;DHT22;4779;48.062;11.672;2023-06-10T10:57:54;26.10;90.90
9482;DHT22;4779;48.062;11.672;2023-06-10T11:00:28;26.40;90.70
9482;DHT22;4779;48.062;11.672;2023-06-10T11:02:58;26.50;89.20
9482;DHT22;4779;48.062;11.672;2023-06-10T11:05:36;26.40;90.90
9482;DHT22;4779;48.062;11.672;2023-06-10T11:08:04;27.10;90.70
9482;DHT22;4779;48.062;11.672;2023-06-10T11:10:33;27.90;87.70
9482;DHT22;4779;48.062;11.672;2023-06-10T11:13:05;28.20;87.50
9482;DHT22;4779;48.062;11.672;2023-06-10T11:15:33;27.80;84.20
9482;DHT22;4779;48.062;11.672;2023-06-10T11:18:11;28.00;89.30
9482;DHT22;4779;48.062;11.672;2023-06-10T11:20:58;28.20;83.80
9482;DHT22;4779;48.062;11.672;2023-06-10T11:23:38;28.10;86.60
9482;DHT22;4779;48.062;11.672;2023-06-10T11:26:21;27.90;83.90
9482;DHT22;4779;48.062;11.672;2023-06-10T11:29:08;28.00;87.90
9482;DHT22;4779;48.062;11.672;2023-06-10T11:31:45;28.30;84.20
9482;DHT22;4779;48.062;11.672;2023-06-10T11:34:13;28.30;85.00
9482;DHT22;4779;48.062;11.672;2023-06-10T11:36:42;28.90;84.60
9482;DHT22;4779;48.062;11.672;2023-06-10T11:39:11;29.40;82.20
9482;DHT22;4779;48.062;11.672;2023-06-10T11:41:40;29.80;80.30
9482;DHT22;4779;48.062;11.672;2023-06-10T11:44:11;30.10;78.30
9482;DHT22;4779;48.062;11.672;2023-06-10T11:46:38;30.30;77.20
9482;DHT22;4779;48.062;11.672;2023-06-10T11:49:06;30.50;76.70
9482;DHT22;4779;48.062;11.672;2023-06-10T11:51:34;30.70;74.70
9482;DHT22;4779;48.062;11.672;2023-06-10T11:54:02;30.60;76.20
9482;DHT22;4779;48.062;11.672;2023-06-10T11:56:30;30.50;77.00
9482;DHT22;4779;48.062;11.672;2023-06-10T11:59:00;30.40;75.50
9482;DHT22;4779;48.062;11.672;2023-06-10T12:01:30;30.30;76.80
9482;DHT22;4779;48.062;11.672;2023-06-10T12:03:59;30.50;77.40
9482;DHT22;4779;48.062;11.672;2023-06-10T12:06:26;30.40;73.10
9482;DHT22;4779;48.062;11.672;2023-06-10T12:08:54;30.80;72.80
9482;DHT22;4779;48.062;11.672;2023-06-10T12:11:21;30.80;72.40
9482;DHT22;4779;48.062;11.672;2023-06-10T12:13:50;31.00;71.40
9482;DHT22;4779;48.062;11.672;2023-06-10T12:16:18;30.90;70.50
9482;DHT22;4779;48.062;11.672;2023-06-10T12:18:46;30.70;72.20
9482;DHT22;4779;48.062;11.672;2023-06-10T12:21:23;30.40;71.40
9482;DHT22;4779;48.062;11.672;2023-06-10T12:24:03;30.30;72.70
9482;DHT22;4779;48.062;11.672;2023-06-10T12:26:35;30.00;75.10
9482;DHT22;4779;48.062;11.672;2023-06-10T12:29:18;30.30;72.70
9482;DHT22;4779;48.062;11.672;2023-06-10T12:31:58;30.60;72.70
9482;DHT22;4779;48.062;11.672;2023-06-10T12:34:30;30.50;72.80
9482;DHT22;4779;48.062;11.672;2023-06-10T12:36:57;31.00;72.60
9482;DHT22;4779;48.062;11.672;2023-06-10T12:39:24;31.30;67.90
9482;DHT22;4779;48.062;11.672;2023-06-10T12:41:51;31.40;66.90
9482;DHT22;4779;48.062;11.672;2023-06-10T12:44:27;31.40;66.80
9482;DHT22;4779;48.062;11.672;2023-06-10T12:46:56;31.40;67.20
9482;DHT22;4779;48.062;11.672;2023-06-10T12:49:23;30.60;68.60
9482;DHT22;4779;48.062;11.672;2023-06-10T12:51:52;29.50;72.20
9482;DHT22;4779;48.062;11.672;2023-06-10T12:54:19;28.60;75.30
9482;DHT22;4779;48.062;11.672;2023-06-10T12:56:46;28.60;76.70
9482;DHT22;4779;48.062;11.672;2023-06-10T12:59:13;28.90;75.50
9482;DHT22;4779;48.062;11.672;2023-06-10T13:01:41;29.40;74.60
9482;DHT22;4779;48.062;11.672;2023-06-10T13:04:09;29.80;73.90
9482;DHT22;4779;48.062;11.672;2023-06-10T13:06:37;29.90;73.90
9482;DHT22;4779;48.062;11.672;2023-06-10T13:09:05;29.90;74.40
9482;DHT22;4779;48.062;11.672;2023-06-10T13:11:33;30.20;75.70
9482;DHT22;4779;48.062;11.672;2023-06-10T13:14:00;30.20;73.30
9482;DHT22;4779;48.062;11.672;2023-06-10T13:16:28;30.30;75.00
9482;DHT22;4779;48.062;11.672;2023-06-10T13:18:55;30.10;74.90
9482;DHT22;4779;48.062;11.672;2023-06-10T13:21:24;29.30;75.70
9482;DHT22;4779;48.062;11.672;2023-06-10T13:23:51;28.70;77.70
9482;DHT22;4779;48.062;11.672;2023-06-10T13:26:18;28.00;78.90
9482;DHT22;4779;48.062;11.672;2023-06-10T13:28:47;27.50;80.10
9482;DHT22;4779;48.062;11.672;2023-06-10T13:31:14;27.10;81.30
9482;DHT22;4779;48.062;11.672;2023-06-10T13:33:41;26.70;81.70
9482;DHT22;4779;48.062;11.672;2023-06-10T13:36:09;26.70;81.40
9482;DHT22;4779;48.062;11.672;2023-06-10T13:38:39;27.30;82.50
9482;DHT22;4779;48.062;11.672;2023-06-10T13:41:06;27.90;82.10
9482;DHT22;4779;48.062;11.672;2023-06-10T13:43:33;28.50;81.20
9482;DHT22;4779;48.062;11.672;2023-06-10T13:46:00;29.10;78.40
9482;DHT22;4779;48.062;11.672;2023-06-10T13:48:27;29.40;75.80
9482;DHT22;4779;48.062;11.672;2023-06-10T13:50:53;29.50;74.80
9482;DHT22;4779;48.062;11.672;2023-06-10T13:53:20;29.60;75.70
9482;DHT22;4779;48.062;11.672;2023-06-10T13:55:49;29.80;74.90
9482;DHT22;4779;48.062;11.672;2023-06-10T13:58:15;29.80;73.00
9482;DHT22;4779;48.062;11.672;2023-06-10T14:00:43;29.70;73.80
9482;DHT22;4779;48.062;11.672;2023-06-10T14:03:09;29.60;72.40
9482;DHT22;4779;48.062;11.672;2023-06-10T14:05:36;29.50;72.90
9482;DHT22;4779;48.062;11.672;2023-06-10T14:08:07;29.50;74.60
9482;DHT22;4779;48.062;11.672;2023-06-10T14:10:37;29.50;72.20
9482;DHT22;4779;48.062;11.672;2023-06-10T14:13:05;29.20;71.90
9482;DHT22;4779;48.062;11.672;2023-06-10T14:15:32;29.10;72.50
9482;DHT22;4779;48.062;11.672;2023-06-10T14:17:59;29.20;72.00
9482;DHT22;4779;48.062;11.672;2023-06-10T14:20:26;29.00;72.60
9482;DHT22;4779;48.062;11.672;2023-06-10T14:22:56;29.00;73.60
9482;DHT22;4779;48.062;11.672;2023-06-10T14:25:23;28.80;73.10
9482;DHT22;4779;48.062;11.672;2023-06-10T14:27:50;28.80;73.30
9482;DHT22;4779;48.062;11.672;2023-06-10T14:30:21;28.70;73.00
9482;DHT22;4779;48.062;11.672;2023-06-10T14:32:48;28.40;74.20
9482;DHT22;4779;48.062;11.672;2023-06-10T14:35:15;28.30;73.90
9482;DHT22;4779;48.062;11.672;2023-06-10T14:37:41;28.10;74.40
9482;DHT22;4779;48.062;11.672;2023-06-10T14:40:09;28.00;75.50
9482;DHT22;4779;48.062;11.672;2023-06-10T14:42:36;27.90;76.00
9482;DHT22;4779;48.062;11.672;2023-06-10T14:45:04;27.80;75.90
9482;DHT22;4779;48.062;11.672;2023-06-10T14:47:33;27.70;75.50
9482;DHT22;4779;48.062;11.672;2023-06-10T14:50:00;27.30;77.50
9482;DHT22;4779;48.062;11.672;2023-06-10T14:52:27;27.40;77.80
9482;DHT22;4779;48.062;11.672;2023-06-10T14:54:54;27.20;77.00
9482;DHT22;4779;48.062;11.672;2023-06-10T14:57:21;27.10;77.60
9482;DHT22;4779;48.062;11.672;2023-06-10T14:59:48;26.80;76.30
9482;DHT22;4779;48.062;11.672;2023-06-10T15:02:15;26.60;76.60
9482;DHT22;4779;48.062;11.672;2023-06-10T15:04:43;26.70;75.50
9482;DHT22;4779;48.062;11.672;2023-06-10T15:07:10;27.00;76.60
9482;DHT22;4779;48.062;11.672;2023-06-10T15:09:37;27.30;76.90
9482;DHT22;4779;48.062;11.672;2023-06-10T15:12:04;27.30;78.80
9482;DHT22;4779;48.062;11.672;2023-06-10T15:14:31;27.20;80.80
9482;DHT22;4779;48.062;11.672;2023-06-10T15:16:58;26.90;79.20
9482;DHT22;4779;48.062;11.672;2023-06-10T15:19:26;26.70;82.50
9482;DHT22;4779;48.062;11.672;2023-06-10T15:21:54;26.50;80.90
9482;DHT22;4779;48.062;11.672;2023-06-10T15:24:21;26.30;80.10
9482;DHT22;4779;48.062;11.672;2023-06-10T15:26:48;26.10;81.30
9482;DHT22;4779;48.062;11.672;2023-06-10T15:29:15;26.10;80.90
9482;DHT22;4779;48.062;11.672;2023-06-10T15:31:41;26.00;80.40
9482;DHT22;4779;48.062;11.672;2023-06-10T15:34:08;26.00;82.60
9482;DHT22;4779;48.062;11.672;2023-06-10T15:36:35;26.00;82.70
9482;DHT22;4779;48.062;11.672;2023-06-10T15:39:05;26.00;81.30
9482;DHT22;4779;48.062;11.672;2023-06-10T15:41:32;26.00;81.70
9482;DHT22;4779;48.062;11.672;2023-06-10T15:43:59;26.10;82.70
9482;DHT22;4779;48.062;11.672;2023-06-10T15:46:27;26.10;82.10
9482;DHT22;4779;48.062;11.672;2023-06-10T15:48:54;26.20;82.20
9482;DHT22;4779;48.062;11.672;2023-06-10T15:51:21;26.10;82.50